createdAt,value
2023-07-20T00:02:06.618Z,100359.72
2023-07-20T00:04:33.736Z,100359.53
2023-07-20T00:07:02.091Z,100361.16
2023-07-20T00:09:29.142Z,100364.72
2023-07-20T00:11:55.939Z,100362.31
2023-07-20T00:14:23.109Z,100370.38
2023-07-20T00:16:56.892Z,100367.66
2023-07-20T00:19:25.815Z,100359.47
2023-07-20T00:21:53.137Z,100365.09
2023-07-20T00:24:19.996Z,100367.31
2023-07-20T00:26:46.909Z,100356.53
2023-07-20T00:29:14.864Z,100369.44
2023-07-20T00:31:41.681Z,100366.41
2023-07-20T00:34:08.466Z,100369.31
2023-07-20T00:36:35.225Z,100361.41
2023-07-20T00:39:04.299Z,100369.63
2023-07-20T00:41:31.170Z,100371.56
2023-07-20T00:43:57.900Z,100365.47
2023-07-20T00:46:26.654Z,100377.38
2023-07-20T00:48:54.575Z,100369.66
2023-07-20T00:51:22.649Z,100374.50
2023-07-20T00:53:50.136Z,100378.06
2023-07-20T00:56:17.358Z,100374.66
2023-07-20T00:58:45.446Z,100377.56
2023-07-20T01:01:12.634Z,100374.81
2023-07-20T01:03:41.474Z,100375.16
2023-07-20T01:06:36.038Z,100379.81
2023-07-20T01:09:26.150Z,100372.91
2023-07-20T01:12:05.047Z,100373.34
2023-07-20T01:14:34.323Z,100375.47
2023-07-20T01:17:01.423Z,100374.19
2023-07-20T01:19:30.405Z,100376.56
2023-07-20T01:22:28.532Z,100368.69
2023-07-20T01:25:18.694Z,100382.22
2023-07-20T01:28:18.616Z,100384.16
2023-07-20T01:30:55.936Z,100379.16
2023-07-20T01:33:25.286Z,100378.66
2023-07-20T01:35:57.681Z,100380.44
2023-07-20T01:38:26.652Z,100375.59
2023-07-20T01:40:54.008Z,100374.94
2023-07-20T01:43:22.016Z,100378.34
2023-07-20T01:45:49.680Z,100377.22
2023-07-20T01:48:16.681Z,100375.91
2023-07-20T01:50:44.169Z,100373.31
2023-07-20T01:53:11.304Z,100370.59
2023-07-20T01:55:38.320Z,100373.66
2023-07-20T01:58:05.651Z,100370.56
2023-07-20T02:00:32.537Z,100370.75
2023-07-20T02:02:59.596Z,100379.25
2023-07-20T02:05:26.836Z,100379.59
2023-07-20T02:07:53.861Z,100379.78
2023-07-20T02:10:21.567Z,100380.59
2023-07-20T02:12:48.941Z,100376.00
2023-07-20T02:15:18.106Z,100371.19
2023-07-20T02:17:45.194Z,100375.59
2023-07-20T02:20:13.575Z,100365.94
2023-07-20T02:22:41.556Z,100371.88
2023-07-20T02:25:09.153Z,100370.06
2023-07-20T02:27:36.142Z,100364.47
2023-07-20T02:30:04.562Z,100363.28
2023-07-20T02:32:38.187Z,100371.84
2023-07-20T02:35:05.805Z,100381.69
2023-07-20T02:37:34.556Z,100368.78
2023-07-20T02:40:02.189Z,100368.91
2023-07-20T02:42:32.950Z,100370.56
2023-07-20T02:44:59.974Z,100373.00
2023-07-20T02:47:27.364Z,100375.41
2023-07-20T02:49:54.172Z,100372.00
2023-07-20T02:52:22.810Z,100385.91
2023-07-20T02:54:49.964Z,100374.56
2023-07-20T02:57:16.765Z,100368.53
2023-07-20T02:59:43.817Z,100372.31
2023-07-20T03:02:11.737Z,100372.16
2023-07-20T03:04:39.068Z,100370.69
2023-07-20T03:07:06.581Z,100370.13
2023-07-20T03:09:33.962Z,100376.09
2023-07-20T03:12:00.898Z,100375.50
2023-07-20T03:14:27.929Z,100375.63
2023-07-20T03:16:56.670Z,100364.47
2023-07-20T03:19:23.484Z,100363.44
2023-07-20T03:21:50.918Z,100373.13
2023-07-20T03:26:45.594Z,100379.97
2023-07-20T03:29:12.720Z,100379.22
2023-07-20T03:31:39.580Z,100373.59
2023-07-20T03:34:07.274Z,100381.81
2023-07-20T03:36:34.159Z,100389.78
2023-07-20T03:39:01.161Z,100392.41
2023-07-20T03:41:28.133Z,100398.31
2023-07-20T03:43:55.558Z,100405.22
2023-07-20T03:46:22.630Z,100393.63
2023-07-20T03:48:49.813Z,100399.22
2023-07-20T03:51:16.981Z,100399.56
2023-07-20T03:53:44.223Z,100401.94
2023-07-20T03:56:11.306Z,100401.53
2023-07-20T03:58:38.459Z,100409.41
2023-07-20T04:01:05.310Z,100406.97
2023-07-20T04:03:32.236Z,100407.75
2023-07-20T04:05:59.374Z,100414.97
2023-07-20T04:08:26.406Z,100413.69
2023-07-20T04:10:53.646Z,100410.44
2023-07-20T04:13:20.514Z,100416.09
2023-07-20T04:15:47.613Z,100412.09
2023-07-20T04:18:14.794Z,100406.63
2023-07-20T04:20:42.061Z,100416.09
2023-07-20T04:23:09.133Z,100411.34
2023-07-20T04:25:40.357Z,100427.03
2023-07-20T04:28:11.489Z,100422.72
2023-07-20T04:30:43.773Z,100421.91
2023-07-20T04:33:10.908Z,100421.84
2023-07-20T04:35:51.334Z,100422.63
2023-07-20T04:38:22.433Z,100430.78
2023-07-20T04:40:56.269Z,100429.16
2023-07-20T04:43:23.267Z,100429.06
2023-07-20T04:45:51.847Z,100431.78
2023-07-20T04:48:19.047Z,100433.69
2023-07-20T04:50:50.762Z,100433.34
2023-07-20T04:53:18.242Z,100428.34
2023-07-20T04:55:53.073Z,100421.03
2023-07-20T04:58:22.498Z,100425.94
2023-07-20T05:00:50.801Z,100420.56
2023-07-20T05:03:18.913Z,100423.75
2023-07-20T05:05:49.901Z,100411.03
2023-07-20T05:08:17.949Z,100409.25
2023-07-20T05:10:44.974Z,100414.28
2023-07-20T05:13:12.179Z,100419.31
2023-07-20T05:15:39.712Z,100415.50
2023-07-20T05:18:11.162Z,100420.47
2023-07-20T05:20:38.503Z,100414.28
2023-07-20T05:23:05.697Z,100409.03
2023-07-20T05:25:32.714Z,100422.06
2023-07-20T05:27:59.838Z,100429.00
2023-07-20T05:30:26.924Z,100427.69
2023-07-20T05:32:55.712Z,100429.63
2023-07-20T05:35:23.556Z,100423.50
2023-07-20T05:37:51.067Z,100429.88
2023-07-20T05:40:20.396Z,100422.91
2023-07-20T05:42:49.920Z,100432.06
2023-07-20T05:45:16.963Z,100433.28
2023-07-20T05:47:43.970Z,100434.81
2023-07-20T05:50:11.553Z,100430.75
2023-07-20T05:52:39.863Z,100436.38
2023-07-20T05:55:07.334Z,100439.03
2023-07-20T05:57:34.688Z,100431.28
2023-07-20T06:00:01.722Z,100434.25
2023-07-20T06:02:40.997Z,100433.25
2023-07-20T06:05:11.919Z,100429.84
2023-07-20T06:07:39.704Z,100427.56
2023-07-20T06:10:07.546Z,100433.56
2023-07-20T06:12:34.640Z,100430.28
2023-07-20T06:15:06.050Z,100430.19
2023-07-20T06:17:34.856Z,100429.09
2023-07-20T06:20:02.117Z,100435.53
2023-07-20T06:22:31.336Z,100436.75
2023-07-20T06:24:58.155Z,100425.06
2023-07-20T06:27:25.058Z,100433.94
2023-07-20T06:29:51.862Z,100437.63
2023-07-20T06:32:18.594Z,100436.50
2023-07-20T06:34:45.423Z,100434.78
2023-07-20T06:37:12.404Z,100433.97
2023-07-20T06:42:09.766Z,100435.91
2023-07-20T06:44:41.778Z,100429.09
2023-07-20T06:47:08.743Z,100436.34
2023-07-20T06:49:35.659Z,100431.97
2023-07-20T06:52:02.598Z,100434.06
2023-07-20T06:54:35.230Z,100433.59
2023-07-20T06:57:17.585Z,100439.88
2023-07-20T07:02:14.957Z,100444.72
2023-07-20T07:04:43.375Z,100443.44
2023-07-20T07:07:11.109Z,100440.50
2023-07-20T07:09:38.207Z,100442.47
2023-07-20T07:12:05.796Z,100446.28
2023-07-20T07:14:33.218Z,100442.16
2023-07-20T07:17:05.159Z,100447.81
2023-07-20T07:19:32.506Z,100437.81
2023-07-20T07:22:00.860Z,100431.00
2023-07-20T07:24:29.534Z,100433.47
2023-07-20T07:26:57.043Z,100432.88
2023-07-20T07:29:24.163Z,100438.09
2023-07-20T07:31:51.030Z,100439.59
2023-07-20T07:34:17.863Z,100437.03
2023-07-20T07:36:45.623Z,100442.25
2023-07-20T07:41:42.111Z,100441.34
2023-07-20T07:44:08.895Z,100447.00
2023-07-20T07:46:35.901Z,100440.88
2023-07-20T07:49:02.772Z,100436.19
2023-07-20T07:51:29.637Z,100434.88
2023-07-20T07:53:56.588Z,100446.13
2023-07-20T07:56:24.865Z,100452.13
2023-07-20T07:58:55.060Z,100448.22
2023-07-20T08:01:22.130Z,100447.66
2023-07-20T08:03:49.381Z,100451.22
2023-07-20T08:06:16.729Z,100445.66
2023-07-20T08:08:43.932Z,100448.28
2023-07-20T08:11:10.778Z,100447.59
2023-07-20T08:13:37.931Z,100444.84
2023-07-20T08:16:05.051Z,100446.97
2023-07-20T08:18:32.418Z,100441.22
2023-07-20T08:20:59.742Z,100440.09
2023-07-20T08:23:28.604Z,100448.75
2023-07-20T08:25:55.832Z,100443.00
2023-07-20T08:28:22.987Z,100442.25
2023-07-20T08:30:50.906Z,100447.78
2023-07-20T08:33:20.499Z,100443.47
2023-07-20T08:35:48.459Z,100439.84
2023-07-20T08:38:15.767Z,100442.53
2023-07-20T08:40:45.640Z,100448.19
2023-07-20T08:43:13.839Z,100449.03
2023-07-20T08:45:42.340Z,100454.22
2023-07-20T08:48:10.133Z,100448.00
2023-07-20T08:50:40.180Z,100452.56
2023-07-20T08:53:08.392Z,100445.75
2023-07-20T08:55:37.114Z,100440.13
2023-07-20T08:58:05.522Z,100446.22
2023-07-20T09:00:33.208Z,100437.00
2023-07-20T09:03:04.212Z,100440.59
2023-07-20T09:08:01.433Z,100440.28
2023-07-20T09:10:28.743Z,100438.78
2023-07-20T09:12:56.609Z,100434.69
2023-07-20T09:15:24.441Z,100435.63
2023-07-20T09:17:52.437Z,100434.13
2023-07-20T09:20:22.880Z,100430.00
2023-07-20T09:22:53.863Z,100430.13
2023-07-20T09:25:26.628Z,100433.28
2023-07-20T09:27:57.000Z,100430.72
2023-07-20T09:30:31.744Z,100428.53
2023-07-20T09:32:59.886Z,100428.00
2023-07-20T09:35:33.090Z,100435.06
2023-07-20T09:50:51.857Z,100440.88
2023-07-20T09:53:20.147Z,100431.84
2023-07-20T09:55:48.778Z,100440.31
2023-07-20T09:58:17.194Z,100422.41
2023-07-20T10:03:25.751Z,100425.91
2023-07-20T10:06:00.481Z,100423.09
2023-07-20T10:11:03.176Z,100422.16
2023-07-20T10:13:31.299Z,100421.47
2023-07-20T10:16:06.646Z,100407.00
2023-07-20T10:19:03.147Z,100410.03
2023-07-20T10:24:03.243Z,100408.09
2023-07-20T10:26:30.545Z,100408.00
2023-07-20T10:28:58.034Z,100403.00
2023-07-20T10:31:30.125Z,100404.63
2023-07-20T10:34:03.228Z,100403.91
2023-07-20T10:36:32.173Z,100394.84
2023-07-20T10:38:59.948Z,100396.47
2023-07-20T10:41:37.271Z,100392.03
2023-07-20T10:44:14.486Z,100390.50
2023-07-20T10:46:41.415Z,100385.44
2023-07-20T10:49:10.395Z,100378.88
2023-07-20T10:51:42.351Z,100385.91
2023-07-20T10:54:29.659Z,100377.31
2023-07-20T10:56:57.945Z,100365.31
2023-07-20T10:59:24.778Z,100368.97
2023-07-20T11:02:02.665Z,100358.16
2023-07-20T11:04:43.302Z,100356.31
2023-07-20T11:07:10.769Z,100358.59
2023-07-20T11:09:39.447Z,100357.25
2023-07-20T11:12:19.377Z,100357.44
2023-07-20T11:15:00.140Z,100352.63
2023-07-20T11:17:31.840Z,100358.59
2023-07-20T11:22:34.751Z,100339.09
2023-07-20T11:25:01.781Z,100347.84
2023-07-20T11:27:31.322Z,100342.09
2023-07-20T11:29:58.523Z,100338.22
2023-07-20T11:32:25.881Z,100335.94
2023-07-20T11:34:53.147Z,100341.09
2023-07-20T11:37:20.096Z,100341.88
2023-07-20T11:39:47.878Z,100330.88
2023-07-20T11:43:20.059Z,100331.66
2023-07-20T11:45:06.524Z,100325.91
2023-07-20T11:47:34.507Z,100332.22
2023-07-20T11:50:05.274Z,100327.72
2023-07-20T11:52:34.148Z,100323.69
2023-07-20T11:55:01.501Z,100323.50
2023-07-20T11:57:31.860Z,100318.81
2023-07-20T12:00:03.011Z,100307.22
2023-07-20T12:02:40.424Z,100313.53
2023-07-20T12:05:09.450Z,100310.97
2023-07-20T12:07:38.385Z,100303.03
2023-07-20T12:10:11.589Z,100305.97
2023-07-20T12:12:40.198Z,100303.34
2023-07-20T12:15:23.937Z,100307.44
2023-07-20T12:17:54.320Z,100309.63
2023-07-20T12:20:32.121Z,100299.28
2023-07-20T12:23:05.996Z,100298.47
2023-07-20T12:25:43.682Z,100296.53
2023-07-20T12:28:15.739Z,100285.66
2023-07-20T12:30:45.577Z,100288.06
2023-07-20T12:33:16.920Z,100292.94
2023-07-20T12:35:45.083Z,100292.81
2023-07-20T12:38:12.294Z,100285.34
2023-07-20T12:40:39.117Z,100290.91
2023-07-20T12:43:06.180Z,100283.47
2023-07-20T12:45:33.604Z,100281.09
2023-07-20T12:48:00.685Z,100287.50
2023-07-20T12:50:27.893Z,100275.13
2023-07-20T12:52:55.117Z,100284.25
2023-07-20T12:55:22.016Z,100282.19
2023-07-20T12:57:49.089Z,100280.47
2023-07-20T13:00:17.514Z,100279.84
2023-07-20T13:02:44.730Z,100275.00
2023-07-20T13:05:11.803Z,100266.50
2023-07-20T13:10:11.541Z,100268.97
2023-07-20T13:12:39.469Z,100269.03
2023-07-20T13:15:08.058Z,100265.53
2023-07-20T13:17:36.401Z,100259.91
2023-07-20T13:20:08.401Z,100259.53
2023-07-20T13:22:36.173Z,100257.03
2023-07-20T13:25:03.692Z,100251.03
2023-07-20T13:27:33.757Z,100250.38
2023-07-20T13:30:10.377Z,100246.81
2023-07-20T13:32:37.646Z,100253.06
2023-07-20T13:35:05.790Z,100239.34
2023-07-20T13:37:34.808Z,100241.84
2023-07-20T13:40:02.030Z,100234.47
2023-07-20T13:42:34.031Z,100244.19
2023-07-20T13:45:02.106Z,100234.09
2023-07-20T13:47:34.294Z,100238.00
2023-07-20T13:50:04.825Z,100228.31
2023-07-20T13:55:06.084Z,100225.66
2023-07-20T13:57:35.276Z,100217.84
2023-07-20T14:00:05.322Z,100218.81
2023-07-20T14:07:41.069Z,100219.03
2023-07-20T14:12:38.118Z,100217.53
2023-07-20T14:15:05.948Z,100215.06
2023-07-20T14:17:33.224Z,100216.53
2023-07-20T14:20:00.323Z,100222.16
2023-07-20T14:22:27.485Z,100217.13
2023-07-20T14:24:54.981Z,100204.00
2023-07-20T14:27:22.335Z,100199.00
2023-07-20T14:29:49.382Z,100204.00
2023-07-20T14:32:16.424Z,100200.59
2023-07-20T14:34:44.384Z,100192.13
2023-07-20T14:37:14.483Z,100192.50
2023-07-20T14:39:41.665Z,100187.78
2023-07-20T14:42:08.829Z,100180.94
2023-07-20T14:44:35.720Z,100183.47
2023-07-20T14:47:14.251Z,100180.59
2023-07-20T14:49:42.834Z,100187.47
2023-07-20T14:54:39.933Z,100187.38
2023-07-20T14:57:14.786Z,100184.50
2023-07-20T14:59:45.278Z,100185.56
2023-07-20T15:02:12.539Z,100183.50
2023-07-20T15:04:47.355Z,100189.81
2023-07-20T15:07:14.176Z,100193.19
2023-07-20T15:09:41.006Z,100179.66
2023-07-20T15:12:08.786Z,100178.03
2023-07-20T15:14:36.148Z,100183.31
2023-07-20T15:17:03.144Z,100177.50
2023-07-20T15:19:30.036Z,100177.09
2023-07-20T15:21:57.354Z,100178.13
2023-07-20T15:24:24.285Z,100180.09
2023-07-20T15:26:51.207Z,100177.44
2023-07-20T15:34:19.289Z,100169.53
2023-07-20T15:36:46.569Z,100157.31
2023-07-20T15:39:13.438Z,100160.22
2023-07-20T15:41:40.273Z,100156.31
2023-07-20T15:44:07.242Z,100143.75
2023-07-20T15:46:40.450Z,100145.94
2023-07-20T15:49:08.294Z,100136.81
2023-07-20T15:51:41.085Z,100148.63
2023-07-20T15:54:12.760Z,100133.38
2023-07-20T15:56:41.017Z,100120.59
2023-07-20T15:59:12.116Z,100122.56
2023-07-20T16:01:40.207Z,100119.44
2023-07-20T16:04:07.998Z,100119.69
2023-07-20T16:06:36.721Z,100110.13
2023-07-20T16:09:07.433Z,100104.91
2023-07-20T16:11:37.678Z,100098.34
2023-07-20T16:14:06.919Z,100096.41
2023-07-20T16:16:36.000Z,100099.34
2023-07-20T16:19:03.807Z,100099.22
2023-07-20T16:21:33.118Z,100096.38
2023-07-20T16:24:00.616Z,100094.69
2023-07-20T16:26:27.886Z,100099.88
2023-07-20T16:29:23.265Z,100090.63
2023-07-20T16:32:10.548Z,100093.22
2023-07-20T16:34:28.656Z,100096.41
2023-07-20T16:36:57.751Z,100089.31
2023-07-20T16:44:24.747Z,100079.06
2023-07-20T16:49:21.515Z,100084.56
2023-07-20T16:51:48.511Z,100081.53
2023-07-20T16:54:17.955Z,100081.56
2023-07-20T16:56:45.400Z,100078.25
2023-07-20T16:59:12.425Z,100071.84
2023-07-20T17:01:39.528Z,100067.91
2023-07-20T17:04:06.631Z,100072.72
2023-07-20T17:06:33.717Z,100069.66
2023-07-20T17:09:02.264Z,100067.31
2023-07-20T17:11:29.307Z,100068.53
2023-07-20T17:13:56.329Z,100061.44
2023-07-20T17:16:23.283Z,100064.13
2023-07-20T17:18:50.208Z,100061.13
2023-07-20T17:21:17.255Z,100070.44
2023-07-20T17:28:46.960Z,100075.56
2023-07-20T17:31:14.167Z,100072.75
2023-07-20T17:33:41.190Z,100077.81
2023-07-20T17:38:42.996Z,100080.13
2023-07-20T17:41:12.264Z,100071.66
2023-07-20T17:43:40.959Z,100069.75
2023-07-20T17:48:37.848Z,100075.13
2023-07-20T17:51:04.979Z,100076.22
2023-07-20T17:53:31.903Z,100075.91
2023-07-20T17:55:58.892Z,100071.38
2023-07-20T17:58:25.831Z,100074.00
2023-07-20T18:00:53.897Z,100069.22
2023-07-20T18:03:20.922Z,100065.16
2023-07-20T18:05:47.784Z,100067.91
2023-07-20T18:08:14.750Z,100070.88
2023-07-20T18:10:41.662Z,100074.75
2023-07-20T18:13:08.420Z,100069.56
2023-07-20T18:15:35.591Z,100063.50
2023-07-20T18:18:02.609Z,100070.91
2023-07-20T18:20:29.489Z,100075.16
2023-07-20T18:22:56.241Z,100067.28
2023-07-20T18:25:23.313Z,100067.09
2023-07-20T18:27:50.210Z,100077.16
2023-07-20T18:30:20.021Z,100061.84
2023-07-20T18:32:47.594Z,100071.47
2023-07-20T18:35:14.479Z,100068.97
2023-07-20T18:37:41.228Z,100073.97
2023-07-20T18:40:08.690Z,100068.09
2023-07-20T18:42:35.967Z,100072.22
2023-07-20T18:45:03.052Z,100076.19
2023-07-20T18:47:32.649Z,100077.34
2023-07-20T18:49:59.712Z,100075.94
2023-07-20T18:52:26.507Z,100079.78
2023-07-20T18:54:53.444Z,100073.56
2023-07-20T18:57:21.784Z,100077.47
2023-07-20T18:59:50.607Z,100080.75
2023-07-20T19:02:17.435Z,100086.63
2023-07-20T19:04:44.185Z,100075.00
2023-07-20T19:07:11.028Z,100073.88
2023-07-20T19:09:37.791Z,100077.78
2023-07-20T19:12:04.883Z,100080.78
2023-07-20T19:14:32.046Z,100079.38
2023-07-20T19:16:59.140Z,100082.22
2023-07-20T19:19:26.398Z,100080.44
2023-07-20T19:21:53.244Z,100079.53
2023-07-20T19:24:20.245Z,100078.31
2023-07-20T19:26:47.253Z,100082.06
2023-07-20T19:29:14.335Z,100085.41
2023-07-20T19:31:42.226Z,100087.19
2023-07-20T19:34:09.243Z,100078.56
2023-07-20T19:36:37.100Z,100094.41
2023-07-20T19:39:04.939Z,100092.53
2023-07-20T19:41:32.010Z,100098.75
2023-07-20T19:43:59.284Z,100091.44
2023-07-20T19:46:26.832Z,100089.41
2023-07-20T19:48:54.120Z,100100.16
2023-07-20T19:51:20.995Z,100108.97
2023-07-20T19:56:18.738Z,100102.31
2023-07-20T19:58:45.788Z,100112.81
2023-07-20T20:03:42.927Z,100105.06
2023-07-20T20:06:13.157Z,100108.53
2023-07-20T20:08:39.946Z,100114.13
2023-07-20T20:13:36.578Z,100109.50
2023-07-20T20:16:05.087Z,100108.41
2023-07-20T20:18:33.631Z,100101.84
2023-07-20T20:21:01.063Z,100102.59
2023-07-20T20:23:28.007Z,100103.03
2023-07-20T20:25:55.306Z,100095.91
2023-07-20T20:28:22.698Z,100097.75
2023-07-20T20:30:53.066Z,100099.28
2023-07-20T20:33:25.369Z,100100.78
2023-07-20T20:35:53.504Z,100105.41
2023-07-20T20:38:23.695Z,100094.47
2023-07-20T20:40:54.546Z,100102.22
2023-07-20T20:43:22.601Z,100107.16
2023-07-20T20:45:50.605Z,100102.22
2023-07-20T20:48:18.019Z,100103.91
2023-07-20T20:50:45.189Z,100102.22
2023-07-20T20:53:16.256Z,100095.34
2023-07-20T20:55:43.053Z,100095.78
2023-07-20T20:58:10.170Z,100099.78
2023-07-20T21:00:37.317Z,100089.69
2023-07-20T21:03:04.194Z,100091.88
2023-07-20T21:05:38.692Z,100093.63
2023-07-20T21:08:06.032Z,100087.56
2023-07-20T21:10:34.104Z,100096.53
2023-07-20T21:13:04.942Z,100095.66
2023-07-20T21:15:33.283Z,100085.63
2023-07-20T21:18:00.243Z,100081.84
2023-07-20T21:20:27.149Z,100083.19
2023-07-20T21:22:54.218Z,100090.72
2023-07-20T21:25:21.054Z,100089.81
2023-07-20T21:27:47.791Z,100090.84
2023-07-20T21:30:14.749Z,100089.03
2023-07-20T21:32:41.875Z,100084.28
2023-07-20T21:35:09.232Z,100094.00
2023-07-20T21:37:36.084Z,100098.06
2023-07-20T21:40:04.462Z,100094.63
2023-07-20T21:42:32.000Z,100091.81
2023-07-20T21:44:58.814Z,100093.31
2023-07-20T21:47:26.278Z,100088.41
2023-07-20T21:49:53.132Z,100087.88
2023-07-20T21:52:19.909Z,100082.22
2023-07-20T21:54:46.957Z,100072.88
2023-07-20T21:57:14.040Z,100078.09
2023-07-20T21:59:41.602Z,100080.28
2023-07-20T22:02:08.409Z,100089.16
2023-07-20T22:04:35.562Z,100091.75
2023-07-20T22:07:02.531Z,100091.28
2023-07-20T22:09:29.894Z,100093.00
2023-07-20T22:11:56.659Z,100088.09
2023-07-20T22:14:23.445Z,100080.06
2023-07-20T22:16:50.301Z,100078.81
2023-07-20T22:19:20.037Z,100080.63
2023-07-20T22:21:47.989Z,100084.41
2023-07-20T22:24:15.019Z,100084.75
2023-07-20T22:26:41.957Z,100082.19
2023-07-20T22:29:08.849Z,100085.22
2023-07-20T22:31:35.903Z,100086.91
2023-07-20T22:34:02.732Z,100078.94
2023-07-20T22:36:29.469Z,100073.97
2023-07-20T22:38:56.416Z,100073.19
2023-07-20T22:41:23.294Z,100079.56
2023-07-20T22:43:50.097Z,100078.91
2023-07-20T22:46:18.484Z,100080.16
2023-07-20T22:48:45.754Z,100076.44
2023-07-20T22:51:12.563Z,100082.53
2023-07-20T22:53:40.157Z,100082.19
2023-07-20T22:56:07.162Z,100080.78
2023-07-20T22:58:34.430Z,100073.69
2023-07-20T23:01:01.643Z,100074.84
2023-07-20T23:03:28.797Z,100075.03
2023-07-20T23:05:55.903Z,100073.06
2023-07-20T23:08:23.268Z,100075.31
2023-07-20T23:10:51.563Z,100078.69
2023-07-20T23:13:18.496Z,100071.00
2023-07-20T23:15:45.420Z,100070.75
2023-07-20T23:18:12.480Z,100068.78
2023-07-20T23:20:39.328Z,100066.16
2023-07-20T23:23:06.557Z,100067.03
2023-07-20T23:25:33.581Z,100066.06
2023-07-20T23:28:00.309Z,100065.44
2023-07-20T23:30:30.508Z,100057.25
2023-07-20T23:32:57.346Z,100051.44
2023-07-20T23:35:24.317Z,100050.34
2023-07-20T23:37:51.577Z,100051.63
2023-07-20T23:40:19.583Z,100053.16
2023-07-20T23:42:47.971Z,100052.47
2023-07-20T23:45:17.796Z,100050.97
2023-07-20T23:47:44.740Z,100051.66
2023-07-20T23:50:11.825Z,100049.25
2023-07-20T23:52:38.923Z,100053.13
2023-07-20T23:55:10.273Z,100056.56
2023-07-20T23:57:38.882Z,100050.41
